カラチ の空港の天気 - METARとTAF

ジンナー国際空港(カラチ) ( OPKC / KHI ) - パキスタン Karachi
飛行場実況気象(Metar)
観測時間05/25 15:25 PKT (05/25 10:25 UTC)
風向・風速西南西 8m/s
視程6000m
天気現象
少しの雲 雲底高度 610m
気温36℃
湿度42%
気圧1002hPa
METAROPKC 251025Z 25016KT 6000 FEW020 36/21 Q1002 TEMPO 25016G25KT
過去の天気等 Google飛行場航空写真 Wunderground天気予報

過去48時間のMETAR

飛行場予報(TAF)
発表時間: 5/25 08:30 PKT (5/25 03:30 UTC)
予報対象時間: 25日11時 PKT ~ 26日17時 PKT
風向・風速西南西 6m/s 瞬間風速 11m/s
視程6,000m
少しの雲 雲底高度 610m
25日23時 PKT から
風向・風速西 3m/s 瞬間風速 8m/s
視程6,000m
少しの雲 雲底高度 610m
25日23時 PKT から
風向・風速西 3m/s 瞬間風速 8m/s
視程5,000m
天気現象煙霧
全天の4割程度の雲 雲底高度 610m
26日10時 PKT から
風向・風速南西 5m/s 瞬間風速 10m/s
視程6,000m
全天の4割程度の雲 雲底高度 610m
TAF OPKC 250330Z 2506/2612 24012G22KT 6000 FEW020
FM251800 26005G15KT 6000 FEW020
FM 251800 26005G15KT 5000 HZ SCT020
FM260500 23010G20KT 6000 SCT020